TimeMST,TemperatureF,Dew PointF,Humidity,Sea Level PressureIn,VisibilityMPH,Wind Direction,Wind SpeedMPH,Gust SpeedMPH,PrecipitationIn,Events,Conditions,WindDirDegrees,DateUTC
12:15 AM,49.1,30.2,48,29.88,10.0,West,9.2,-,N/A,,Clear,260,2013-12-05 07:15:00
12:35 AM,49.1,30.4,49,29.88,10.0,West,9.2,-,N/A,,Clear,260,2013-12-05 07:35:00
12:55 AM,46.8,30.2,53,29.87,10.0,WSW,8.1,-,N/A,,Clear,250,2013-12-05 07:55:00
1:15 AM,46.0,30.0,54,29.87,10.0,WSW,9.2,-,N/A,,Clear,240,2013-12-05 08:15:00
1:35 AM,45.9,30.0,54,29.87,10.0,WSW,9.2,-,N/A,,Clear,250,2013-12-05 08:35:00
1:55 AM,45.5,29.8,54,29.87,10.0,WSW,6.9,-,N/A,,Clear,240,2013-12-05 08:55:00
2:15 AM,44.6,30.0,57,29.87,10.0,WSW,6.9,-,N/A,,Clear,250,2013-12-05 09:15:00
2:35 AM,42.3,29.8,61,29.87,10.0,West,6.9,-,N/A,,Clear,260,2013-12-05 09:35:00
2:55 AM,41.4,29.7,63,29.86,10.0,West,8.1,-,N/A,,Mostly Cloudy,260,2013-12-05 09:55:00
3:15 AM,42.8,30.2,61,29.87,10.0,WSW,8.1,-,N/A,,Overcast,250,2013-12-05 10:15:00
3:35 AM,43.2,30.2,60,29.87,10.0,West,6.9,-,N/A,,Overcast,260,2013-12-05 10:35:00
3:55 AM,45.1,31.5,59,29.88,10.0,SW,6.9,-,N/A,,Overcast,230,2013-12-05 10:55:00
4:15 AM,45.7,32.0,59,29.88,10.0,SW,6.9,-,N/A,,Overcast,220,2013-12-05 11:15:00
4:35 AM,46.4,32.5,59,29.88,10.0,SSW,5.8,-,N/A,,Overcast,210,2013-12-05 11:35:00
4:55 AM,47.3,33.1,58,29.88,10.0,South,11.5,-,N/A,,Overcast,190,2013-12-05 11:55:00
5:15 AM,47.8,35.8,63,29.88,10.0,SSW,9.2,-,N/A,,Overcast,200,2013-12-05 12:15:00
5:35 AM,47.7,36.5,65,29.88,10.0,South,9.2,-,N/A,,Overcast,190,2013-12-05 12:35:00
5:55 AM,47.5,36.5,66,29.90,10.0,SSW,8.1,-,N/A,,Overcast,210,2013-12-05 12:55:00
6:15 AM,46.6,36.3,67,29.89,10.0,SSW,5.8,-,N/A,,Overcast,200,2013-12-05 13:15:00
6:35 AM,47.3,35.1,62,29.89,10.0,SSW,8.1,-,N/A,,Overcast,210,2013-12-05 13:35:00
6:55 AM,47.5,35.1,62,29.89,10.0,SSW,9.2,-,N/A,,Overcast,210,2013-12-05 13:55:00
7:15 AM,47.5,34.2,60,29.89,10.0,SSW,8.1,-,N/A,,Overcast,200,2013-12-05 14:15:00
7:35 AM,48.9,33.6,56,29.89,10.0,SSW,13.8,18.4,N/A,,Overcast,200,2013-12-05 14:35:00
7:55 AM,47.3,37.6,69,29.88,10.0,South,13.8,-,N/A,,Mostly Cloudy,190,2013-12-05 14:55:00
8:15 AM,46.8,37.6,70,29.90,10.0,SSW,16.1,-,N/A,,Scattered Clouds,200,2013-12-05 15:15:00
8:35 AM,48.4,37.9,67,29.90,10.0,SSW,16.1,20.7,N/A,,Clear,200,2013-12-05 15:35:00
8:55 AM,48.4,39.6,72,29.91,10.0,SSW,17.3,23.0,N/A,,Clear,200,2013-12-05 15:55:00
9:15 AM,49.1,39.6,70,29.92,10.0,SSW,17.3,20.7,N/A,,Clear,210,2013-12-05 16:15:00
9:35 AM,49.1,39.2,69,29.92,10.0,SSW,13.8,-,N/A,,Clear,210,2013-12-05 16:35:00
9:55 AM,50.9,39.4,65,29.92,10.0,SSW,15.0,23.0,N/A,,Clear,200,2013-12-05 16:55:00
10:15 AM,53.1,36.3,53,29.91,10.0,SSW,20.7,25.3,N/A,,Scattered Clouds,210,2013-12-05 17:15:00
10:35 AM,53.1,34.7,50,29.90,10.0,SW,18.4,24.2,N/A,,Mostly Cloudy,230,2013-12-05 17:35:00
10:55 AM,54.9,35.1,47,29.90,10.0,SW,18.4,26.5,N/A,,Scattered Clouds,230,2013-12-05 17:55:00
11:15 AM,56.1,34.0,43,29.90,10.0,WSW,21.9,27.6,N/A,,Clear,250,2013-12-05 18:15:00
11:35 AM,55.4,34.7,46,29.89,10.0,WSW,18.4,27.6,N/A,,Scattered Clouds,240,2013-12-05 18:35:00
11:55 AM,55.2,33.3,43,29.88,10.0,WSW,20.7,29.9,N/A,,Mostly Cloudy,240,2013-12-05 18:55:00
12:15 PM,55.9,32.9,42,29.86,10.0,WSW,21.9,31.1,N/A,,Overcast,250,2013-12-05 19:15:00
12:35 PM,54.7,32.9,44,29.86,10.0,WSW,20.7,25.3,N/A,,Overcast,240,2013-12-05 19:35:00
12:55 PM,54.9,32.9,43,29.85,10.0,SW,20.7,-,N/A,,Mostly Cloudy,230,2013-12-05 19:55:00
1:15 PM,55.8,33.3,43,29.84,10.0,West,16.1,23.0,N/A,,Mostly Cloudy,260,2013-12-05 20:15:00
1:35 PM,54.1,34.7,48,29.84,10.0,West,15.0,20.7,N/A,,Scattered Clouds,260,2013-12-05 20:35:00
1:55 PM,53.1,35.2,51,29.84,10.0,West,17.3,21.9,N/A,,Mostly Cloudy,260,2013-12-05 20:55:00
2:15 PM,52.3,36.1,54,29.84,10.0,West,17.3,21.9,N/A,,Mostly Cloudy,260,2013-12-05 21:15:00
2:35 PM,52.0,36.1,55,29.84,10.0,West,12.7,20.7,N/A,,Mostly Cloudy,280,2013-12-05 21:35:00
2:55 PM,51.4,36.1,56,29.84,10.0,West,17.3,24.2,N/A,,Overcast,270,2013-12-05 21:55:00
3:15 PM,50.4,36.1,58,29.84,10.0,West,20.7,26.5,N/A,,Overcast,280,2013-12-05 22:15:00
3:35 PM,50.0,35.2,57,29.86,10.0,West,19.6,24.2,N/A,,Overcast,280,2013-12-05 22:35:00
3:55 PM,49.1,34.9,58,29.86,10.0,West,16.1,25.3,N/A,Rain,Light Rain,270,2013-12-05 22:55:00
4:15 PM,48.6,33.6,56,29.88,10.0,West,16.1,20.7,N/A,,Overcast,260,2013-12-05 23:15:00
4:35 PM,47.7,33.4,58,29.88,10.0,West,13.8,17.3,N/A,,Overcast,270,2013-12-05 23:35:00
4:55 PM,46.8,33.4,60,29.88,10.0,WNW,10.4,-,N/A,,Overcast,300,2013-12-05 23:55:00
5:15 PM,46.4,33.8,62,29.88,10.0,WNW,5.8,-,N/A,,Overcast,300,2013-12-06 00:15:00
5:35 PM,45.5,34.2,65,29.90,10.0,West,6.9,-,N/A,,Drizzle,280,2013-12-06 00:35:00
5:55 PM,45.5,33.6,63,29.90,10.0,West,8.1,-,N/A,,Overcast,280,2013-12-06 00:55:00
6:15 PM,45.5,32.5,61,29.91,10.0,West,6.9,-,N/A,,Overcast,280,2013-12-06 01:15:00
6:35 PM,45.0,32.0,60,29.91,10.0,West,9.2,-,N/A,,Overcast,280,2013-12-06 01:35:00
6:55 PM,44.2,31.6,61,29.91,10.0,West,10.4,-,N/A,,Mostly Cloudy,280,2013-12-06 01:55:00
7:15 PM,43.7,31.5,62,29.91,10.0,West,9.2,-,N/A,,Mostly Cloudy,280,2013-12-06 02:15:00
7:35 PM,43.2,31.1,62,29.92,10.0,West,9.2,-,N/A,,Scattered Clouds,260,2013-12-06 02:35:00
7:55 PM,41.9,31.1,66,29.92,10.0,West,5.8,-,N/A,,Scattered Clouds,260,2013-12-06 02:55:00
8:15 PM,40.8,31.1,68,29.92,10.0,West,5.8,-,N/A,,Clear,280,2013-12-06 03:15:00
8:35 PM,39.6,30.7,71,29.94,10.0,West,3.5,-,N/A,,Clear,260,2013-12-06 03:35:00
8:55 PM,38.7,30.2,72,29.95,10.0,South,3.5,-,N/A,,Mostly Cloudy,180,2013-12-06 03:55:00
9:15 PM,39.2,30.6,71,29.95,10.0,SSW,5.8,-,N/A,,Mostly Cloudy,210,2013-12-06 04:15:00
9:35 PM,39.6,30.2,69,29.95,10.0,SW,6.9,-,N/A,,Scattered Clouds,230,2013-12-06 04:35:00
9:55 PM,38.5,30.0,72,29.95,10.0,SW,6.9,-,N/A,,Clear,230,2013-12-06 04:55:00
10:15 PM,37.8,29.8,73,29.96,10.0,SW,8.1,-,N/A,,Clear,230,2013-12-06 05:15:00
10:35 PM,36.7,29.7,76,29.97,10.0,WSW,8.1,-,N/A,,Clear,240,2013-12-06 05:35:00
10:55 PM,35.6,29.3,78,29.97,10.0,WSW,8.1,-,N/A,,Scattered Clouds,250,2013-12-06 05:55:00
11:15 PM,35.6,29.8,80,29.98,10.0,West,10.4,-,N/A,,Clear,270,2013-12-06 06:15:00
11:35 PM,35.8,29.8,79,29.98,10.0,West,9.2,-,N/A,,Clear,260,2013-12-06 06:35:00
11:55 PM,34.9,29.7,81,29.99,10.0,WSW,11.5,-,N/A,,Clear,250,2013-12-06 06:55:00